Emslake — V2FL4 — position and weather

sailwx.info

Track history (hours):
 
Tides and Currents Weather Stations Pressure Air Temp Water Temp Dewpoint Dewpoint Depression Visibility Wind Speed Wind Dir Waves Ship Positions

Emslake

Last reported at 2014-Nov-01 01:34 UTC. Time now 2014-Nov-01 01:43 UTC.
Position N 53°42' E 005°45'.

Length 100 m; draft 6 m.

Type: Cargo ship. MMSI: 305712000.

Date/timePositionNaut miles runAvg speedWind from/ knotsBaromVisibWave heightAir tempDewpointWater temp
2014-Nov-01 01:34N 53°42' E 005°45'9 8.6
2014-Nov-01 00:34N 53°45' E 005°59'9 8.6
2014-Oct-31 23:33N 53°48' E 006°13'9 9.1
2014-Oct-31 22:33N 53°50' E 006°28'10 9.7
2014-Oct-31 21:33N 53°53' E 006°44'1010.1
2014-Oct-31 20:32N 53°55' E 007°01'1110.2
2014-Oct-31 19:29N 53°58' E 007°18'1010.4
2014-Oct-31 18:33N 54°00' E 007°34'1010.1
2014-Oct-31 17:34N 54°02' E 007°51'9 9.2
2014-Oct-31 16:34N 54°01' E 008°06'10 9.6
2014-Oct-31 15:33N 53°59' E 008°23'8 8.4
2014-Oct-31 14:33N 53°58' E 008°37'8 7.9
2014-Oct-31 13:34N 53°51' E 008°45'1010.1
2014-Oct-31 12:33N 53°52' E 009°02'5 4.8
2014-Oct-31 11:33N 53°54' E 009°10'8 8.3
2014-Oct-31 10:34N 54°01' E 009°18'4 4.4
2014-Oct-31 09:33N 54°05' E 009°19'8 7.6
2014-Oct-31 08:33N 54°11' E 009°28'7 7.4
2014-Oct-31 07:34N 54°16' E 009°37'8 7.8
2014-Oct-31 06:33N 54°21' E 009°47'7 7.5
2014-Oct-31 05:34N 54°21' E 009°59'4 4.2
2014-Oct-31 04:30N 54°22' E 010°07'0 0.0
2014-Oct-31 03:30N 54°22' E 010°07'0 0.0
2014-Oct-31 02:30N 54°22' E 010°07'0 0.0
2014-Oct-31 01:30N 54°22' E 010°07'0 0.0
2014-Oct-31 00:30N 54°22' E 010°07'0 0.0
2014-Oct-30 23:30N 54°22' E 010°07'0 0.0
2014-Oct-30 22:30N 54°22' E 010°07'0 0.0
2014-Oct-30 21:33N 54°22' E 010°07'1 1.2
2014-Oct-30 20:34N 54°22' E 010°09'1 0.8
2014-Oct-30 19:33N 54°22' E 010°10'1 0.7
2014-Oct-30 18:33N 54°23' E 010°11'9 8.6
2014-Oct-30 17:33N 54°30' E 010°18'1010.2
2014-Oct-30 16:33N 54°34' E 010°34'1110.1
2014-Oct-30 15:30N 54°36' E 010°53'27 9.1
2014-Oct-30 12:33N 54°29' E 011°37'9 9.0
2014-Oct-30 11:33N 54°27' E 011°52'9 8.8
2014-Oct-30 10:33N 54°27' E 012°08'20 9.1
2014-Oct-30 08:19N 54°43' E 012°30'60 9.9
2014-Oct-30 02:14N 55°07' E 014°06'710.0
2014-Oct-30 01:31N 55°12' E 014°15'1010.2
2014-Oct-30 00:33N 55°19' E 014°26'1010.2
2014-Oct-29 23:33N 55°27' E 014°38'1110.1
2014-Oct-29 22:27N 55°33' E 014°55'78 9.8
2014-Oct-29 14:31N 56°16' E 016°50'46 9.2
2014-Oct-29 09:31N 56°59' E 017°21'8 8.4
2014-Oct-29 08:33N 57°07' E 017°26'8 7.9
2014-Oct-29 07:33N 57°14' E 017°31'8 8.2
2014-Oct-29 06:34N 57°22' E 017°36'8 8.1
2014-Oct-29 05:33N 57°29' E 017°43'8 8.2
2014-Oct-29 04:33N 57°36' E 017°50'8 8.3
2014-Oct-29 03:33N 57°43' E 017°58'8 8.2
2014-Oct-29 02:33N 57°50' E 018°06'8 7.7
2014-Oct-29 01:33N 57°58' E 018°10'8 7.9
2014-Oct-29 00:33N 58°04' E 018°19'8 7.7
2014-Oct-28 23:34N 58°11' E 018°27'8 7.6
2014-Oct-28 22:34N 58°17' E 018°35'18 7.6
2014-Oct-28 20:12N 58°33' E 018°51'6 7.9
2014-Oct-28 19:28N 58°38' E 018°57'  
Track history (hours):
 
Tides and Currents Weather Stations Pressure Air Temp Water Temp Dewpoint Dewpoint Depression Visibility Wind Speed Wind Dir Waves Ship Positions

Emslake

Last reported at 2014-Nov-01 01:34 UTC. Time now 2014-Nov-01 01:43 UTC.
Position N 53°42' E 005°45'.

Length 100 m; draft 6 m.

Type: Cargo ship. MMSI: 305712000.

Date/timePositionNaut miles runAvg speedWind from/ knotsBaromVisibWave heightAir tempDewpointWater temp
2014-Nov-01 01:34N 53°42' E 005°45'9 8.6
2014-Nov-01 00:34N 53°45' E 005°59'9 8.6
2014-Oct-31 23:33N 53°48' E 006°13'9 9.1
2014-Oct-31 22:33N 53°50' E 006°28'10 9.7
2014-Oct-31 21:33N 53°53' E 006°44'1010.1
2014-Oct-31 20:32N 53°55' E 007°01'1110.2
2014-Oct-31 19:29N 53°58' E 007°18'1010.4
2014-Oct-31 18:33N 54°00' E 007°34'1010.1
2014-Oct-31 17:34N 54°02' E 007°51'9 9.2
2014-Oct-31 16:34N 54°01' E 008°06'10 9.6
2014-Oct-31 15:33N 53°59' E 008°23'8 8.4
2014-Oct-31 14:33N 53°58' E 008°37'8 7.9
2014-Oct-31 13:34N 53°51' E 008°45'1010.1
2014-Oct-31 12:33N 53°52' E 009°02'5 4.8
2014-Oct-31 11:33N 53°54' E 009°10'8 8.3
2014-Oct-31 10:34N 54°01' E 009°18'4 4.4
2014-Oct-31 09:33N 54°05' E 009°19'8 7.6
2014-Oct-31 08:33N 54°11' E 009°28'7 7.4
2014-Oct-31 07:34N 54°16' E 009°37'8 7.8
2014-Oct-31 06:33N 54°21' E 009°47'7 7.5
2014-Oct-31 05:34N 54°21' E 009°59'4 4.2
2014-Oct-31 04:30N 54°22' E 010°07'0 0.0
2014-Oct-31 03:30N 54°22' E 010°07'0 0.0
2014-Oct-31 02:30N 54°22' E 010°07'0 0.0
2014-Oct-31 01:30N 54°22' E 010°07'0 0.0
2014-Oct-31 00:30N 54°22' E 010°07'0 0.0
2014-Oct-30 23:30N 54°22' E 010°07'0 0.0
2014-Oct-30 22:30N 54°22' E 010°07'0 0.0
2014-Oct-30 21:33N 54°22' E 010°07'1 1.2
2014-Oct-30 20:34N 54°22' E 010°09'1 0.8
2014-Oct-30 19:33N 54°22' E 010°10'1 0.7
2014-Oct-30 18:33N 54°23' E 010°11'9 8.6
2014-Oct-30 17:33N 54°30' E 010°18'1010.2
2014-Oct-30 16:33N 54°34' E 010°34'1110.1
2014-Oct-30 15:30N 54°36' E 010°53'27 9.1
2014-Oct-30 12:33N 54°29' E 011°37'9 9.0
2014-Oct-30 11:33N 54°27' E 011°52'9 8.8
2014-Oct-30 10:33N 54°27' E 012°08'20 9.1
2014-Oct-30 08:19N 54°43' E 012°30'60 9.9
2014-Oct-30 02:14N 55°07' E 014°06'710.0
2014-Oct-30 01:31N 55°12' E 014°15'1010.2
2014-Oct-30 00:33N 55°19' E 014°26'1010.2
2014-Oct-29 23:33N 55°27' E 014°38'1110.1
2014-Oct-29 22:27N 55°33' E 014°55'78 9.8
2014-Oct-29 14:31N 56°16' E 016°50'46 9.2
2014-Oct-29 09:31N 56°59' E 017°21'8 8.4
2014-Oct-29 08:33N 57°07' E 017°26'8 7.9
2014-Oct-29 07:33N 57°14' E 017°31'8 8.2
2014-Oct-29 06:34N 57°22' E 017°36'8 8.1
2014-Oct-29 05:33N 57°29' E 017°43'8 8.2
2014-Oct-29 04:33N 57°36' E 017°50'8 8.3
2014-Oct-29 03:33N 57°43' E 017°58'8 8.2
2014-Oct-29 02:33N 57°50' E 018°06'8 7.7
2014-Oct-29 01:33N 57°58' E 018°10'8 7.9
2014-Oct-29 00:33N 58°04' E 018°19'8 7.7
2014-Oct-28 23:34N 58°11' E 018°27'8 7.6
2014-Oct-28 22:34N 58°17' E 018°35'18 7.6
2014-Oct-28 20:12N 58°33' E 018°51'6 7.9
2014-Oct-28 19:28N 58°38' E 018°57'  

Dump ship's entire track history